sensor_id;sensor_type;location;lat;lon;timestamp;noise_LAeq;noise_LA_min;noise_LA_max;noise_LA01;noise_LA95
78074;Laerm;67283;50.960;13.856;2023-05-21T00:00:13;33.28;31.61;38.93;;
78074;Laerm;67283;50.960;13.856;2023-05-21T00:02:41;33.32;31.66;36.99;;
78074;Laerm;67283;50.960;13.856;2023-05-21T00:05:09;33.30;31.79;34.88;;
78074;Laerm;67283;50.960;13.856;2023-05-21T00:07:39;33.33;31.64;36.88;;
78074;Laerm;67283;50.960;13.856;2023-05-21T00:10:08;44.30;31.88;60.59;;
78074;Laerm;67283;50.960;13.856;2023-05-21T00:12:36;33.27;31.54;35.19;;
78074;Laerm;67283;50.960;13.856;2023-05-21T00:15:06;33.33;31.78;40.29;;
78074;Laerm;67283;50.960;13.856;2023-05-21T00:17:37;33.31;31.81;36.32;;
78074;Laerm;67283;50.960;13.856;2023-05-21T00:20:06;33.26;31.65;34.72;;
78074;Laerm;67283;50.960;13.856;2023-05-21T00:22:34;34.80;31.68;62.42;;
78074;Laerm;67283;50.960;13.856;2023-05-21T00:25:04;51.11;31.86;69.61;;
78074;Laerm;67283;50.960;13.856;2023-05-21T00:27:32;33.20;31.46;34.73;;
78074;Laerm;67283;50.960;13.856;2023-05-21T00:30:00;33.20;31.74;48.77;;
78074;Laerm;67283;50.960;13.856;2023-05-21T00:32:29;52.39;31.70;69.80;;
78074;Laerm;67283;50.960;13.856;2023-05-21T00:34:59;33.17;31.44;34.45;;
78074;Laerm;67283;50.960;13.856;2023-05-21T00:37:27;33.15;31.56;38.62;;
78074;Laerm;67283;50.960;13.856;2023-05-21T00:39:58;33.15;31.56;38.62;;
78074;Laerm;67283;50.960;13.856;2023-05-21T00:42:26;33.61;31.66;58.90;;
78074;Laerm;67283;50.960;13.856;2023-05-21T00:44:55;33.17;31.71;36.16;;
78074;Laerm;67283;50.960;13.856;2023-05-21T00:47:23;34.21;31.75;61.89;;
78074;Laerm;67283;50.960;13.856;2023-05-21T00:49:53;33.25;31.37;34.99;;
78074;Laerm;67283;50.960;13.856;2023-05-21T00:52:24;33.24;31.74;46.66;;
78074;Laerm;67283;50.960;13.856;2023-05-21T00:54:53;33.62;31.71;39.79;;
78074;Laerm;67283;50.960;13.856;2023-05-21T00:57:23;52.54;31.70;71.61;;
78074;Laerm;67283;50.960;13.856;2023-05-21T00:59:52;33.24;31.56;34.63;;
78074;Laerm;67283;50.960;13.856;2023-05-21T01:02:20;33.19;31.55;35.19;;
78074;Laerm;67283;50.960;13.856;2023-05-21T01:04:50;33.14;31.57;34.84;;
78074;Laerm;67283;50.960;13.856;2023-05-21T01:07:18;33.16;31.57;34.47;;
78074;Laerm;67283;50.960;13.856;2023-05-21T01:09:50;33.16;31.57;34.47;;
78074;Laerm;67283;50.960;13.856;2023-05-21T01:12:18;33.15;31.45;35.85;;
78074;Laerm;67283;50.960;13.856;2023-05-21T01:14:47;50.52;31.50;68.14;;
78074;Laerm;67283;50.960;13.856;2023-05-21T01:17:16;33.20;31.52;37.54;;
78074;Laerm;67283;50.960;13.856;2023-05-21T01:19:48;33.40;31.83;34.81;;
78074;Laerm;67283;50.960;13.856;2023-05-21T01:22:16;33.19;31.37;39.77;;
78074;Laerm;67283;50.960;13.856;2023-05-21T01:24:52;33.15;31.76;34.86;;
78074;Laerm;67283;50.960;13.856;2023-05-21T01:27:21;33.19;31.69;45.22;;
78074;Laerm;67283;50.960;13.856;2023-05-21T01:29:49;33.20;31.67;34.72;;
78074;Laerm;67283;50.960;13.856;2023-05-21T01:32:18;36.97;31.67;51.09;;
78074;Laerm;67283;50.960;13.856;2023-05-21T01:34:51;33.67;31.99;41.17;;
78074;Laerm;67283;50.960;13.856;2023-05-21T01:37:24;49.50;31.61;67.35;;
78074;Laerm;67283;50.960;13.856;2023-05-21T01:39:58;33.86;31.72;60.86;;
78074;Laerm;67283;50.960;13.856;2023-05-21T01:42:27;33.20;31.58;36.25;;
78074;Laerm;67283;50.960;13.856;2023-05-21T01:44:56;33.82;31.59;49.27;;
78074;Laerm;67283;50.960;13.856;2023-05-21T01:47:26;33.46;31.73;55.85;;
78074;Laerm;67283;50.960;13.856;2023-05-21T01:49:56;33.22;31.64;34.59;;
78074;Laerm;67283;50.960;13.856;2023-05-21T01:52:25;33.25;31.65;34.60;;
78074;Laerm;67283;50.960;13.856;2023-05-21T01:54:57;33.26;31.53;43.62;;
78074;Laerm;67283;50.960;13.856;2023-05-21T01:57:25;33.36;31.79;38.50;;
78074;Laerm;67283;50.960;13.856;2023-05-21T01:59:53;33.45;31.92;36.62;;
78074;Laerm;67283;50.960;13.856;2023-05-21T02:02:22;54.63;31.92;76.80;;
78074;Laerm;67283;50.960;13.856;2023-05-21T02:04:50;53.07;32.17;71.81;;
78074;Laerm;67283;50.960;13.856;2023-05-21T02:07:18;48.01;32.59;64.61;;
78074;Laerm;67283;50.960;13.856;2023-05-21T02:09:46;48.01;32.59;64.61;;
78074;Laerm;67283;50.960;13.856;2023-05-21T02:12:17;57.48;32.20;76.69;;
78074;Laerm;67283;50.960;13.856;2023-05-21T02:14:45;56.73;36.92;70.48;;
78074;Laerm;67283;50.960;13.856;2023-05-21T02:17:14;58.74;37.62;76.65;;
78074;Laerm;67283;50.960;13.856;2023-05-21T02:19:42;58.58;39.66;70.43;;
78074;Laerm;67283;50.960;13.856;2023-05-21T02:22:11;59.70;39.44;76.62;;
78074;Laerm;67283;50.960;13.856;2023-05-21T02:24:39;57.27;39.76;69.90;;
78074;Laerm;67283;50.960;13.856;2023-05-21T02:27:07;56.31;39.50;70.30;;
78074;Laerm;67283;50.960;13.856;2023-05-21T02:29:40;54.13;39.34;74.02;;
78074;Laerm;67283;50.960;13.856;2023-05-21T02:32:08;54.13;39.34;74.02;;
78074;Laerm;67283;50.960;13.856;2023-05-21T02:34:36;54.15;39.37;68.51;;
78074;Laerm;67283;50.960;13.856;2023-05-21T02:37:06;54.15;39.37;68.51;;
78074;Laerm;67283;50.960;13.856;2023-05-21T02:39:34;54.13;40.48;68.63;;
78074;Laerm;67283;50.960;13.856;2023-05-21T02:42:02;53.59;41.34;65.85;;
78074;Laerm;67283;50.960;13.856;2023-05-21T02:44:30;53.08;40.10;65.17;;
78074;Laerm;67283;50.960;13.856;2023-05-21T02:47:01;52.37;40.25;62.84;;
78074;Laerm;67283;50.960;13.856;2023-05-21T02:49:29;52.37;40.25;62.84;;
78074;Laerm;67283;50.960;13.856;2023-05-21T02:51:57;50.40;39.83;58.52;;
78074;Laerm;67283;50.960;13.856;2023-05-21T02:54:25;49.44;38.00;60.54;;
78074;Laerm;67283;50.960;13.856;2023-05-21T02:56:53;48.54;37.96;58.75;;
78074;Laerm;67283;50.960;13.856;2023-05-21T02:59:21;53.16;37.40;69.97;;
78074;Laerm;67283;50.960;13.856;2023-05-21T03:01:49;48.39;36.43;63.25;;
78074;Laerm;67283;50.960;13.856;2023-05-21T03:04:20;48.39;36.43;63.25;;
78074;Laerm;67283;50.960;13.856;2023-05-21T03:06:49;53.45;36.00;69.23;;
78074;Laerm;67283;50.960;13.856;2023-05-21T03:09:19;47.62;35.81;59.48;;
78074;Laerm;67283;50.960;13.856;2023-05-21T03:11:47;45.91;35.81;56.57;;
78074;Laerm;67283;50.960;13.856;2023-05-21T03:14:15;45.91;35.81;56.57;;
78074;Laerm;67283;50.960;13.856;2023-05-21T03:16:43;45.96;34.74;61.82;;
78074;Laerm;67283;50.960;13.856;2023-05-21T03:19:13;45.06;35.52;58.89;;
78074;Laerm;67283;50.960;13.856;2023-05-21T03:21:44;45.07;34.95;59.70;;
78074;Laerm;67283;50.960;13.856;2023-05-21T03:24:13;52.80;34.92;71.12;;
78074;Laerm;67283;50.960;13.856;2023-05-21T03:26:41;51.51;34.82;67.04;;
78074;Laerm;67283;50.960;13.856;2023-05-21T03:29:09;49.63;34.62;66.82;;
78074;Laerm;67283;50.960;13.856;2023-05-21T03:31:37;42.53;34.60;55.20;;
78074;Laerm;67283;50.960;13.856;2023-05-21T03:34:05;55.38;36.25;71.46;;
78074;Laerm;67283;50.960;13.856;2023-05-21T03:36:34;52.41;34.28;70.62;;
78074;Laerm;67283;50.960;13.856;2023-05-21T03:39:05;45.08;33.41;56.94;;
78074;Laerm;67283;50.960;13.856;2023-05-21T03:41:33;45.89;35.20;61.54;;
78074;Laerm;67283;50.960;13.856;2023-05-21T03:44:01;46.17;35.40;61.81;;
78074;Laerm;67283;50.960;13.856;2023-05-21T03:46:29;54.30;34.53;69.56;;
78074;Laerm;67283;50.960;13.856;2023-05-21T03:48:57;46.02;34.44;63.06;;
78074;Laerm;67283;50.960;13.856;2023-05-21T03:51:26;45.30;34.02;61.61;;
78074;Laerm;67283;50.960;13.856;2023-05-21T03:53:55;44.44;34.41;56.65;;
78074;Laerm;67283;50.960;13.856;2023-05-21T03:56:26;45.64;34.36;66.76;;
78074;Laerm;67283;50.960;13.856;2023-05-21T03:58:54;50.92;35.09;68.68;;
78074;Laerm;67283;50.960;13.856;2023-05-21T04:01:22;43.10;34.39;54.46;;
78074;Laerm;67283;50.960;13.856;2023-05-21T04:03:52;45.33;34.55;59.04;;
78074;Laerm;67283;50.960;13.856;2023-05-21T04:06:20;50.04;34.73;66.49;;
78074;Laerm;67283;50.960;13.856;2023-05-21T04:08:48;44.31;34.13;57.73;;
78074;Laerm;67283;50.960;13.856;2023-05-21T04:11:16;43.46;34.02;56.67;;
78074;Laerm;67283;50.960;13.856;2023-05-21T04:13:47;42.97;33.90;55.35;;
78074;Laerm;67283;50.960;13.856;2023-05-21T04:16:15;43.97;33.89;59.35;;
78074;Laerm;67283;50.960;13.856;2023-05-21T04:18:43;44.32;34.74;57.08;;
78074;Laerm;67283;50.960;13.856;2023-05-21T04:21:12;58.42;35.14;75.76;;
78074;Laerm;67283;50.960;13.856;2023-05-21T04:23:40;44.25;34.58;54.92;;
78074;Laerm;67283;50.960;13.856;2023-05-21T04:26:08;45.48;35.24;55.59;;
78074;Laerm;67283;50.960;13.856;2023-05-21T04:28:36;56.06;35.07;72.17;;
78074;Laerm;67283;50.960;13.856;2023-05-21T04:31:08;56.61;34.69;75.60;;
78074;Laerm;67283;50.960;13.856;2023-05-21T04:33:37;56.61;34.69;75.60;;
78074;Laerm;67283;50.960;13.856;2023-05-21T04:36:06;46.76;34.76;68.47;;
78074;Laerm;67283;50.960;13.856;2023-05-21T04:38:35;54.11;35.39;70.77;;
78074;Laerm;67283;50.960;13.856;2023-05-21T04:41:05;55.26;34.36;73.03;;
78074;Laerm;67283;50.960;13.856;2023-05-21T04:43:34;52.13;35.11;69.36;;
78074;Laerm;67283;50.960;13.856;2023-05-21T04:46:02;46.11;34.61;65.67;;
78074;Laerm;67283;50.960;13.856;2023-05-21T04:48:33;46.11;34.61;65.67;;
78074;Laerm;67283;50.960;13.856;2023-05-21T04:51:01;51.36;33.99;71.84;;
78074;Laerm;67283;50.960;13.856;2023-05-21T04:53:30;42.86;33.74;57.17;;
78074;Laerm;67283;50.960;13.856;2023-05-21T04:56:00;44.29;34.12;55.02;;
78074;Laerm;67283;50.960;13.856;2023-05-21T04:58:28;45.82;35.90;59.50;;
78074;Laerm;67283;50.960;13.856;2023-05-21T05:00:58;58.19;35.36;71.89;;
78074;Laerm;67283;50.960;13.856;2023-05-21T05:03:27;51.73;34.24;72.44;;
78074;Laerm;67283;50.960;13.856;2023-05-21T05:05:57;41.99;33.89;59.72;;
78074;Laerm;67283;50.960;13.856;2023-05-21T05:08:28;43.11;33.85;60.49;;
78074;Laerm;67283;50.960;13.856;2023-05-21T05:10:56;56.87;33.99;73.74;;
78074;Laerm;67283;50.960;13.856;2023-05-21T05:13:24;55.64;33.72;71.03;;
78074;Laerm;67283;50.960;13.856;2023-05-21T05:15:52;43.10;33.95;56.40;;
78074;Laerm;67283;50.960;13.856;2023-05-21T05:18:21;52.92;33.98;72.35;;
78074;Laerm;67283;50.960;13.856;2023-05-21T05:20:49;43.39;33.84;58.35;;
78074;Laerm;67283;50.960;13.856;2023-05-21T05:23:20;42.59;33.79;53.44;;
78074;Laerm;67283;50.960;13.856;2023-05-21T05:25:48;42.59;33.79;53.44;;
78074;Laerm;67283;50.960;13.856;2023-05-21T05:28:16;49.03;33.82;68.33;;
78074;Laerm;67283;50.960;13.856;2023-05-21T05:30:44;51.87;34.46;67.81;;
78074;Laerm;67283;50.960;13.856;2023-05-21T05:33:12;47.64;35.15;62.60;;
78074;Laerm;67283;50.960;13.856;2023-05-21T05:35:40;53.61;34.22;71.51;;
78074;Laerm;67283;50.960;13.856;2023-05-21T05:38:09;55.88;34.26;69.16;;
78074;Laerm;67283;50.960;13.856;2023-05-21T05:40:40;47.64;33.75;65.46;;
78074;Laerm;67283;50.960;13.856;2023-05-21T05:43:08;50.91;33.99;69.43;;
78074;Laerm;67283;50.960;13.856;2023-05-21T05:45:36;45.86;32.69;61.65;;
78074;Laerm;67283;50.960;13.856;2023-05-21T05:48:04;46.88;34.50;60.99;;
78074;Laerm;67283;50.960;13.856;2023-05-21T05:50:32;52.29;34.22;70.28;;
78074;Laerm;67283;50.960;13.856;2023-05-21T05:53:01;52.29;34.22;70.28;;
78074;Laerm;67283;50.960;13.856;2023-05-21T05:55:29;49.66;33.64;67.35;;
78074;Laerm;67283;50.960;13.856;2023-05-21T05:57:59;52.61;33.95;69.77;;
78074;Laerm;67283;50.960;13.856;2023-05-21T06:00:27;42.86;33.63;60.46;;
78074;Laerm;67283;50.960;13.856;2023-05-21T06:02:56;51.52;34.19;68.67;;
78074;Laerm;67283;50.960;13.856;2023-05-21T06:05:24;44.06;34.39;66.69;;
78074;Laerm;67283;50.960;13.856;2023-05-21T06:07:52;42.45;34.84;54.21;;
78074;Laerm;67283;50.960;13.856;2023-05-21T06:10:20;44.27;34.20;61.38;;
78074;Laerm;67283;50.960;13.856;2023-05-21T06:12:48;64.48;35.04;87.09;;
78074;Laerm;67283;50.960;13.856;2023-05-21T06:15:19;43.81;34.32;57.44;;
78074;Laerm;67283;50.960;13.856;2023-05-21T06:17:47;49.60;33.96;67.35;;
78074;Laerm;67283;50.960;13.856;2023-05-21T06:20:15;43.75;33.30;62.46;;
78074;Laerm;67283;50.960;13.856;2023-05-21T06:22:43;51.56;33.51;70.67;;
78074;Laerm;67283;50.960;13.856;2023-05-21T06:25:11;41.25;33.42;52.61;;
78074;Laerm;67283;50.960;13.856;2023-05-21T06:27:40;49.18;33.03;67.36;;
78074;Laerm;67283;50.960;13.856;2023-05-21T06:30:08;56.91;35.69;73.02;;
78074;Laerm;67283;50.960;13.856;2023-05-21T06:32:39;45.63;34.18;58.02;;
78074;Laerm;67283;50.960;13.856;2023-05-21T06:35:07;46.13;34.01;57.56;;
78074;Laerm;67283;50.960;13.856;2023-05-21T06:37:35;51.80;33.90;68.81;;
78074;Laerm;67283;50.960;13.856;2023-05-21T06:40:04;45.05;33.70;58.37;;
78074;Laerm;67283;50.960;13.856;2023-05-21T06:42:33;45.05;33.70;58.37;;
78074;Laerm;67283;50.960;13.856;2023-05-21T06:45:01;55.27;33.91;71.49;;
78074;Laerm;67283;50.960;13.856;2023-05-21T06:47:29;46.97;33.73;68.66;;
78074;Laerm;67283;50.960;13.856;2023-05-21T06:50:00;46.32;34.34;61.64;;
78074;Laerm;67283;50.960;13.856;2023-05-21T06:52:28;45.29;33.76;58.58;;
78074;Laerm;67283;50.960;13.856;2023-05-21T06:54:56;53.90;33.58;71.25;;
78074;Laerm;67283;50.960;13.856;2023-05-21T06:57:24;55.13;34.72;75.95;;
78074;Laerm;67283;50.960;13.856;2023-05-21T06:59:52;55.79;34.67;70.74;;
78074;Laerm;67283;50.960;13.856;2023-05-21T07:02:20;54.90;34.52;73.91;;
78074;Laerm;67283;50.960;13.856;2023-05-21T07:04:49;57.81;33.92;74.25;;
78074;Laerm;67283;50.960;13.856;2023-05-21T07:07:20;43.45;33.61;58.14;;
78074;Laerm;67283;50.960;13.856;2023-05-21T07:09:48;43.18;33.92;60.45;;
78074;Laerm;67283;50.960;13.856;2023-05-21T07:12:16;56.19;34.79;70.55;;
78074;Laerm;67283;50.960;13.856;2023-05-21T07:14:44;54.31;34.59;70.66;;
78074;Laerm;67283;50.960;13.856;2023-05-21T07:17:12;59.89;34.51;78.12;;
78074;Laerm;67283;50.960;13.856;2023-05-21T07:19:40;63.08;34.71;81.04;;
78074;Laerm;67283;50.960;13.856;2023-05-21T07:22:08;52.29;34.96;68.75;;
78074;Laerm;67283;50.960;13.856;2023-05-21T07:24:39;59.09;39.06;72.58;;
78074;Laerm;67283;50.960;13.856;2023-05-21T07:27:07;57.75;35.03;75.88;;
78074;Laerm;67283;50.960;13.856;2023-05-21T07:29:35;58.78;35.53;72.91;;
78074;Laerm;67283;50.960;13.856;2023-05-21T07:32:04;59.88;34.46;77.92;;
78074;Laerm;67283;50.960;13.856;2023-05-21T07:34:32;54.24;34.59;71.06;;
78074;Laerm;67283;50.960;13.856;2023-05-21T07:37:00;56.00;34.50;69.31;;
78074;Laerm;67283;50.960;13.856;2023-05-21T07:39:28;58.77;35.80;75.51;;
78074;Laerm;67283;50.960;13.856;2023-05-21T07:41:58;60.93;38.15;76.26;;
78074;Laerm;67283;50.960;13.856;2023-05-21T07:44:27;57.80;36.33;77.03;;
78074;Laerm;67283;50.960;13.856;2023-05-21T07:46:56;53.58;35.11;69.43;;
78074;Laerm;67283;50.960;13.856;2023-05-21T07:49:24;58.53;36.09;73.16;;
78074;Laerm;67283;50.960;13.856;2023-05-21T07:51:52;60.04;35.40;76.85;;
78074;Laerm;67283;50.960;13.856;2023-05-21T07:54:20;53.02;34.05;70.26;;
78074;Laerm;67283;50.960;13.856;2023-05-21T07:56:48;62.17;36.03;76.25;;
78074;Laerm;67283;50.960;13.856;2023-05-21T07:59:19;59.48;35.70;78.52;;
78074;Laerm;67283;50.960;13.856;2023-05-21T08:01:47;60.57;35.62;75.42;;
78074;Laerm;67283;50.960;13.856;2023-05-21T08:04:15;58.19;36.80;72.77;;
78074;Laerm;67283;50.960;13.856;2023-05-21T08:06:43;57.31;35.87;69.32;;
78074;Laerm;67283;50.960;13.856;2023-05-21T08:09:12;63.88;38.47;81.02;;
78074;Laerm;67283;50.960;13.856;2023-05-21T08:11:40;58.04;35.41;74.42;;
78074;Laerm;67283;50.960;13.856;2023-05-21T08:14:08;54.74;35.14;68.64;;
78074;Laerm;67283;50.960;13.856;2023-05-21T08:16:39;68.06;38.47;87.19;;
78074;Laerm;67283;50.960;13.856;2023-05-21T08:19:07;59.22;42.17;70.99;;
78074;Laerm;67283;50.960;13.856;2023-05-21T08:21:35;60.43;37.63;71.91;;
78074;Laerm;67283;50.960;13.856;2023-05-21T08:24:03;60.43;37.63;71.91;;
78074;Laerm;67283;50.960;13.856;2023-05-21T08:26:31;56.83;33.85;73.49;;
78074;Laerm;67283;50.960;13.856;2023-05-21T08:29:00;63.79;42.33;78.95;;
78074;Laerm;67283;50.960;13.856;2023-05-21T08:31:28;57.55;39.63;73.26;;
78074;Laerm;67283;50.960;13.856;2023-05-21T08:33:59;59.56;39.42;74.09;;
78074;Laerm;67283;50.960;13.856;2023-05-21T08:36:27;59.87;36.49;71.57;;
78074;Laerm;67283;50.960;13.856;2023-05-21T08:38:55;56.94;37.97;72.70;;
78074;Laerm;67283;50.960;13.856;2023-05-21T08:41:23;58.22;34.24;74.51;;
78074;Laerm;67283;50.960;13.856;2023-05-21T08:43:52;59.94;38.28;76.26;;
78074;Laerm;67283;50.960;13.856;2023-05-21T08:46:22;61.60;36.62;78.21;;
78074;Laerm;67283;50.960;13.856;2023-05-21T08:48:50;59.77;36.07;73.12;;
78074;Laerm;67283;50.960;13.856;2023-05-21T08:51:22;56.44;35.54;70.37;;
78074;Laerm;67283;50.960;13.856;2023-05-21T08:53:50;57.22;38.51;69.05;;
78074;Laerm;67283;50.960;13.856;2023-05-21T08:56:19;54.21;35.10;70.72;;
78074;Laerm;67283;50.960;13.856;2023-05-21T08:58:48;58.87;34.88;74.53;;
78074;Laerm;67283;50.960;13.856;2023-05-21T09:01:18;59.56;33.56;80.73;;
78074;Laerm;67283;50.960;13.856;2023-05-21T09:03:46;58.58;38.63;70.76;;
78074;Laerm;67283;50.960;13.856;2023-05-21T09:06:15;65.50;37.65;83.13;;
78074;Laerm;67283;50.960;13.856;2023-05-21T09:08:47;55.69;35.57;72.56;;
78074;Laerm;67283;50.960;13.856;2023-05-21T09:11:16;76.58;37.51;99.71;;
78074;Laerm;67283;50.960;13.856;2023-05-21T09:13:45;59.08;34.62;70.78;;
78074;Laerm;67283;50.960;13.856;2023-05-21T09:16:14;60.98;37.96;79.24;;
78074;Laerm;67283;50.960;13.856;2023-05-21T09:18:42;62.48;35.84;77.18;;
78074;Laerm;67283;50.960;13.856;2023-05-21T09:21:22;59.51;37.06;72.77;;
78074;Laerm;67283;50.960;13.856;2023-05-21T09:23:55;60.02;37.33;75.38;;
78074;Laerm;67283;50.960;13.856;2023-05-21T09:26:24;66.73;39.44;80.85;;
78074;Laerm;67283;50.960;13.856;2023-05-21T09:28:55;59.30;35.76;75.19;;
78074;Laerm;67283;50.960;13.856;2023-05-21T09:31:23;60.99;38.52;73.04;;
78074;Laerm;67283;50.960;13.856;2023-05-21T09:33:52;60.99;38.52;73.04;;
78074;Laerm;67283;50.960;13.856;2023-05-21T09:36:21;59.39;35.60;74.29;;
78074;Laerm;67283;50.960;13.856;2023-05-21T09:38:50;65.49;35.78;81.49;;
78074;Laerm;67283;50.960;13.856;2023-05-21T09:41:21;64.16;35.98;83.01;;
78074;Laerm;67283;50.960;13.856;2023-05-21T09:43:58;58.02;35.64;72.10;;
78074;Laerm;67283;50.960;13.856;2023-05-21T09:46:26;62.47;39.08;76.01;;
78074;Laerm;67283;50.960;13.856;2023-05-21T09:48:54;61.52;35.77;78.59;;
78074;Laerm;67283;50.960;13.856;2023-05-21T09:51:22;60.70;40.27;73.38;;
78074;Laerm;67283;50.960;13.856;2023-05-21T09:53:52;60.04;36.40;76.92;;
78074;Laerm;67283;50.960;13.856;2023-05-21T09:56:25;57.66;34.70;78.83;;
78074;Laerm;67283;50.960;13.856;2023-05-21T09:58:55;61.37;36.00;79.60;;
78074;Laerm;67283;50.960;13.856;2023-05-21T10:01:24;60.62;35.63;79.31;;
78074;Laerm;67283;50.960;13.856;2023-05-21T10:03:53;64.56;37.36;78.19;;
78074;Laerm;67283;50.960;13.856;2023-05-21T10:06:23;57.95;35.56;74.46;;
78074;Laerm;67283;50.960;13.856;2023-05-21T10:08:52;59.30;37.78;75.08;;
78074;Laerm;67283;50.960;13.856;2023-05-21T10:11:25;59.50;35.23;76.68;;
78074;Laerm;67283;50.960;13.856;2023-05-21T10:13:55;59.99;38.66;75.37;;
78074;Laerm;67283;50.960;13.856;2023-05-21T10:16:24;58.64;37.00;72.99;;
78074;Laerm;67283;50.960;13.856;2023-05-21T10:18:53;55.23;33.99;73.92;;
78074;Laerm;67283;50.960;13.856;2023-05-21T10:21:22;61.45;33.42;78.71;;
78074;Laerm;67283;50.960;13.856;2023-05-21T10:23:50;64.98;53.84;80.89;;
78074;Laerm;67283;50.960;13.856;2023-05-21T10:26:20;61.01;54.74;79.76;;
78074;Laerm;67283;50.960;13.856;2023-05-21T10:28:51;60.64;55.01;72.22;;
78074;Laerm;67283;50.960;13.856;2023-05-21T10:31:19;61.80;54.48;73.10;;
78074;Laerm;67283;50.960;13.856;2023-05-21T10:33:47;65.66;55.13;78.10;;
78074;Laerm;67283;50.960;13.856;2023-05-21T10:36:16;63.55;54.90;79.44;;
78074;Laerm;67283;50.960;13.856;2023-05-21T10:38:44;61.41;55.58;73.51;;
78074;Laerm;67283;50.960;13.856;2023-05-21T10:41:13;60.06;55.37;70.34;;
78074;Laerm;67283;50.960;13.856;2023-05-21T10:43:53;61.26;54.86;74.42;;
78074;Laerm;67283;50.960;13.856;2023-05-21T10:49:23;62.13;55.24;76.03;;
78074;Laerm;67283;50.960;13.856;2023-05-21T10:51:55;62.52;55.57;74.78;;
78074;Laerm;67283;50.960;13.856;2023-05-21T10:54:30;64.76;55.72;79.62;;
78074;Laerm;67283;50.960;13.856;2023-05-21T10:57:06;62.34;55.41;74.03;;
78074;Laerm;67283;50.960;13.856;2023-05-21T10:59:41;64.29;56.24;78.67;;
78074;Laerm;67283;50.960;13.856;2023-05-21T11:02:10;64.29;56.24;78.67;;
78074;Laerm;67283;50.960;13.856;2023-05-21T11:04:39;62.39;56.63;74.05;;
78074;Laerm;67283;50.960;13.856;2023-05-21T11:07:09;62.57;56.43;73.29;;
78074;Laerm;67283;50.960;13.856;2023-05-21T11:09:37;77.44;55.95;100.08;;
78074;Laerm;67283;50.960;13.856;2023-05-21T11:12:06;63.34;56.18;74.09;;
78074;Laerm;67283;50.960;13.856;2023-05-21T11:14:37;62.78;55.39;74.31;;
78074;Laerm;67283;50.960;13.856;2023-05-21T11:17:14;62.55;55.93;72.18;;
78074;Laerm;67283;50.960;13.856;2023-05-21T11:19:43;68.14;36.40;87.57;;
78074;Laerm;67283;50.960;13.856;2023-05-21T11:22:21;78.12;41.89;103.16;;
78074;Laerm;67283;50.960;13.856;2023-05-21T11:24:49;63.79;39.29;76.95;;
78074;Laerm;67283;50.960;13.856;2023-05-21T11:27:30;62.17;37.03;75.63;;
78074;Laerm;67283;50.960;13.856;2023-05-21T11:30:01;61.85;37.18;79.27;;
78074;Laerm;67283;50.960;13.856;2023-05-21T11:32:33;58.66;35.34;70.41;;
78074;Laerm;67283;50.960;13.856;2023-05-21T11:35:03;56.97;33.52;70.85;;
78074;Laerm;67283;50.960;13.856;2023-05-21T11:37:31;61.22;40.91;73.62;;
78074;Laerm;67283;50.960;13.856;2023-05-21T11:40:16;62.01;38.04;81.67;;
78074;Laerm;67283;50.960;13.856;2023-05-21T11:42:48;60.41;35.74;80.91;;
78074;Laerm;67283;50.960;13.856;2023-05-21T11:45:17;60.27;35.97;73.36;;
78074;Laerm;67283;50.960;13.856;2023-05-21T11:47:49;60.03;40.32;72.36;;
78074;Laerm;67283;50.960;13.856;2023-05-21T11:50:17;61.51;33.93;74.94;;
78074;Laerm;67283;50.960;13.856;2023-05-21T11:52:45;61.23;40.38;74.24;;
78074;Laerm;67283;50.960;13.856;2023-05-21T11:55:13;62.89;36.99;83.27;;
78074;Laerm;67283;50.960;13.856;2023-05-21T11:57:42;55.90;34.60;70.36;;
78074;Laerm;67283;50.960;13.856;2023-05-21T12:00:12;59.05;34.76;72.97;;
78074;Laerm;67283;50.960;13.856;2023-05-21T12:02:44;59.05;34.76;72.97;;
78074;Laerm;67283;50.960;13.856;2023-05-21T12:05:15;59.12;35.28;74.85;;
78074;Laerm;67283;50.960;13.856;2023-05-21T12:07:45;59.76;39.41;73.78;;
78074;Laerm;67283;50.960;13.856;2023-05-21T12:10:14;61.18;37.46;74.20;;
78074;Laerm;67283;50.960;13.856;2023-05-21T12:12:42;55.24;34.76;70.46;;
78074;Laerm;67283;50.960;13.856;2023-05-21T12:15:11;61.69;41.71;72.87;;
78074;Laerm;67283;50.960;13.856;2023-05-21T12:17:40;62.26;37.88;75.81;;
78074;Laerm;67283;50.960;13.856;2023-05-21T12:20:08;62.32;38.84;78.52;;
78074;Laerm;67283;50.960;13.856;2023-05-21T12:22:44;62.41;39.71;75.03;;
78074;Laerm;67283;50.960;13.856;2023-05-21T12:25:12;63.73;43.85;77.60;;
78074;Laerm;67283;50.960;13.856;2023-05-21T12:27:43;60.91;38.68;71.81;;
78074;Laerm;67283;50.960;13.856;2023-05-21T12:30:11;63.40;44.55;78.01;;
78074;Laerm;67283;50.960;13.856;2023-05-21T12:32:39;59.89;37.63;71.31;;
78074;Laerm;67283;50.960;13.856;2023-05-21T12:35:18;64.17;41.48;79.93;;
78074;Laerm;67283;50.960;13.856;2023-05-21T12:37:49;57.71;33.95;68.56;;
78074;Laerm;67283;50.960;13.856;2023-05-21T12:40:17;60.00;35.55;73.81;;
78074;Laerm;67283;50.960;13.856;2023-05-21T12:42:46;61.23;39.53;72.62;;
78074;Laerm;67283;50.960;13.856;2023-05-21T12:45:14;63.06;37.88;76.30;;
78074;Laerm;67283;50.960;13.856;2023-05-21T12:47:46;56.85;33.62;71.83;;
78074;Laerm;67283;50.960;13.856;2023-05-21T12:50:15;56.85;33.62;71.83;;
78074;Laerm;67283;50.960;13.856;2023-05-21T12:52:52;63.80;38.57;78.14;;
78074;Laerm;67283;50.960;13.856;2023-05-21T12:55:20;58.53;34.63;70.33;;
78074;Laerm;67283;50.960;13.856;2023-05-21T12:57:48;58.53;34.63;70.33;;
78074;Laerm;67283;50.960;13.856;2023-05-21T13:00:21;63.52;42.88;76.10;;
78074;Laerm;67283;50.960;13.856;2023-05-21T13:02:50;57.82;35.48;70.94;;
78074;Laerm;67283;50.960;13.856;2023-05-21T13:05:20;62.35;36.91;76.42;;
78074;Laerm;67283;50.960;13.856;2023-05-21T13:07:51;61.65;38.17;77.39;;
78074;Laerm;67283;50.960;13.856;2023-05-21T13:10:19;59.70;35.81;69.97;;
78074;Laerm;67283;50.960;13.856;2023-05-21T13:12:47;59.21;33.38;76.02;;
78074;Laerm;67283;50.960;13.856;2023-05-21T13:15:15;60.33;34.76;73.35;;
78074;Laerm;67283;50.960;13.856;2023-05-21T13:17:43;59.01;37.40;71.82;;
78074;Laerm;67283;50.960;13.856;2023-05-21T13:20:12;61.58;36.22;75.81;;
78074;Laerm;67283;50.960;13.856;2023-05-21T13:22:41;61.68;33.09;76.03;;
78074;Laerm;67283;50.960;13.856;2023-05-21T13:25:13;64.60;36.81;78.63;;
78074;Laerm;67283;50.960;13.856;2023-05-21T13:27:43;61.70;34.30;76.30;;
78074;Laerm;67283;50.960;13.856;2023-05-21T13:30:11;60.21;35.05;74.60;;
78074;Laerm;67283;50.960;13.856;2023-05-21T13:32:40;65.14;39.51;80.97;;
78074;Laerm;67283;50.960;13.856;2023-05-21T13:35:08;65.14;39.51;80.97;;
78074;Laerm;67283;50.960;13.856;2023-05-21T13:37:37;57.11;32.45;72.97;;
78074;Laerm;67283;50.960;13.856;2023-05-21T13:40:06;60.30;34.55;78.78;;
78074;Laerm;67283;50.960;13.856;2023-05-21T13:42:37;63.50;35.55;79.74;;
78074;Laerm;67283;50.960;13.856;2023-05-21T13:45:06;62.26;35.39;79.31;;